RYR2WA GCTS-GMAD
Flight info
| Callsign | RYR2WA |
|---|---|
| Flight time | 1h 2m |
| Altitude | 38000 |
| Route | KORAL DCT AMLOK A600 TEKNA |
| Aircraft | B738/M-SDE3FGILRWY/SB1 |
Departure
| Time | 2026-05-04 21:28 |
|---|---|
| Airport | Tenerife Sur Airport (GCTS) |
Arrival
| Time | 2026-05-04 22:30 |
|---|---|
| Airport | Al Massira Airport (GMAD) |
| Time | Latitude | Longitude | Altitude | Speed | Heading |
|---|---|---|---|---|---|
| 2026-05-04 20:58 | 28.04573 | -16.58065 | 225 ft | 0 kts | 338° |
| 2026-05-04 21:04 | 28.04577 | -16.58067 | 225 ft | 0 kts | 338° |
| 2026-05-04 21:20 | 28.04562 | -16.58061 | 226 ft | 3 kts | 338° |
| 2026-05-04 21:21 | 28.04544 | -16.58052 | 226 ft | 3 kts | 337° |
| 2026-05-04 21:21 | 28.04524 | -16.58039 | 225 ft | 3 kts | 311° |
| 2026-05-04 21:21 | 28.04513 | -16.58018 | 226 ft | 4 kts | 273° |
| 2026-05-04 21:21 | 28.04516 | -16.57992 | 226 ft | 3 kts | 249° |
| 2026-05-04 21:22 | 28.04512 | -16.58005 | 224 ft | 4 kts | 248° |
| 2026-05-04 21:22 | 28.04503 | -16.58030 | 226 ft | 4 kts | 248° |
| 2026-05-04 21:22 | 28.04499 | -16.58040 | 224 ft | 1 kts | 248° |
| 2026-05-04 21:24 | 28.04499 | -16.58041 | 223 ft | 1 kts | 248° |
| 2026-05-04 21:25 | 28.04486 | -16.58077 | 223 ft | 10 kts | 248° |
| 2026-05-04 21:25 | 28.04455 | -16.58169 | 224 ft | 14 kts | 248° |
| 2026-05-04 21:25 | 28.04395 | -16.58208 | 222 ft | 12 kts | 162° |
| 2026-05-04 21:25 | 28.04317 | -16.58192 | 222 ft | 12 kts | 207° |
| 2026-05-04 21:26 | 28.04267 | -16.58290 | 222 ft | 19 kts | 248° |
| 2026-05-04 21:26 | 28.04211 | -16.58452 | 222 ft | 23 kts | 248° |
| 2026-05-04 21:26 | 28.04161 | -16.58623 | 221 ft | 23 kts | 248° |
| 2026-05-04 21:26 | 28.04099 | -16.58799 | 210 ft | 20 kts | 248° |
| 2026-05-04 21:27 | 28.04050 | -16.58941 | 208 ft | 14 kts | 248° |
| 2026-05-04 21:27 | 28.03981 | -16.58995 | 212 ft | 14 kts | 156° |
| 2026-05-04 21:27 | 28.03917 | -16.58903 | 201 ft | 16 kts | 120° |
| 2026-05-04 21:27 | 28.03910 | -16.58793 | 198 ft | 14 kts | 69° |
| 2026-05-04 21:28 | 28.03964 | -16.58635 | 198 ft | 44 kts | 69° |
| 2026-05-04 21:28 | 28.04164 | -16.58060 | 202 ft | 110 kts | 68° |
| 2026-05-04 21:28 | 28.04519 | -16.57069 | 253 ft | 154 kts | 67° |
| 2026-05-04 21:28 | 28.04906 | -16.55936 | 921 ft | 153 kts | 68° |
| 2026-05-04 21:29 | 28.05286 | -16.54820 | 1572 ft | 156 kts | 64° |
| 2026-05-04 21:29 | 28.05714 | -16.53586 | 1884 ft | 180 kts | 64° |
| 2026-05-04 21:29 | 28.06208 | -16.52174 | 2193 ft | 199 kts | 66° |
| 2026-05-04 21:29 | 28.06733 | -16.50668 | 2621 ft | 210 kts | 66° |
| 2026-05-04 21:30 | 28.07269 | -16.49138 | 3266 ft | 212 kts | 66° |
| 2026-05-04 21:30 | 28.07832 | -16.47539 | 3690 ft | 228 kts | 67° |
| 2026-05-04 21:30 | 28.08445 | -16.45772 | 3949 ft | 252 kts | 70° |
| 2026-05-04 21:30 | 28.08783 | -16.43762 | 4463 ft | 265 kts | 83° |
| 2026-05-04 21:31 | 28.09088 | -16.39487 | 5675 ft | 280 kts | 85° |
| 2026-05-04 21:31 | 28.09239 | -16.37249 | 6285 ft | 288 kts | 85° |
| 2026-05-04 21:31 | 28.09398 | -16.34954 | 6900 ft | 293 kts | 86° |
| 2026-05-04 21:32 | 28.09560 | -16.32651 | 7670 ft | 293 kts | 86° |
| 2026-05-04 21:32 | 28.09724 | -16.30345 | 8408 ft | 296 kts | 87° |
| 2026-05-04 21:32 | 28.09893 | -16.27972 | 8984 ft | 305 kts | 87° |
| 2026-05-04 21:32 | 28.10067 | -16.25572 | 9863 ft | 304 kts | 88° |
| 2026-05-04 21:33 | 28.10240 | -16.23159 | 10457 ft | 314 kts | 88° |
| 2026-05-04 21:33 | 28.10421 | -16.20592 | 10651 ft | 338 kts | 88° |
| 2026-05-04 21:33 | 28.10613 | -16.17887 | 10944 ft | 356 kts | 88° |
| 2026-05-04 21:33 | 28.10818 | -16.15041 | 11471 ft | 365 kts | 88° |
| 2026-05-04 21:34 | 28.11027 | -16.12153 | 12120 ft | 371 kts | 88° |
| 2026-05-04 21:34 | 28.11238 | -16.09220 | 12767 ft | 377 kts | 88° |
| 2026-05-04 21:34 | 28.11450 | -16.06237 | 13406 ft | 383 kts | 88° |
| 2026-05-04 21:34 | 28.11665 | -16.03207 | 14047 ft | 389 kts | 88° |
| 2026-05-04 21:35 | 28.11749 | -16.00123 | 14690 ft | 391 kts | 95° |
| 2026-05-04 21:35 | 28.11584 | -15.97038 | 15384 ft | 394 kts | 98° |
| 2026-05-04 21:35 | 28.11330 | -15.93930 | 16074 ft | 398 kts | 99° |
| 2026-05-04 21:35 | 28.11064 | -15.90831 | 16723 ft | 403 kts | 99° |
| 2026-05-04 21:36 | 28.10804 | -15.87647 | 17382 ft | 408 kts | 99° |
| 2026-05-04 21:36 | 28.10559 | -15.84422 | 18049 ft | 413 kts | 98° |
| 2026-05-04 21:36 | 28.10325 | -15.81155 | 18665 ft | 417 kts | 98° |
| 2026-05-04 21:36 | 28.10098 | -15.77854 | 19222 ft | 423 kts | 98° |
| 2026-05-04 21:37 | 28.09873 | -15.74519 | 19779 ft | 427 kts | 98° |
| 2026-05-04 21:37 | 28.09648 | -15.71178 | 20326 ft | 432 kts | 98° |
| 2026-05-04 21:37 | 28.09417 | -15.67760 | 20866 ft | 437 kts | 98° |
| 2026-05-04 21:37 | 28.09182 | -15.64299 | 21423 ft | 442 kts | 98° |
| 2026-05-04 21:38 | 28.08944 | -15.60804 | 21929 ft | 447 kts | 98° |
| 2026-05-04 21:38 | 28.08703 | -15.57277 | 22472 ft | 451 kts | 98° |
| 2026-05-04 21:38 | 28.08457 | -15.53709 | 22960 ft | 457 kts | 98° |
| 2026-05-04 21:38 | 28.08208 | -15.50100 | 23440 ft | 462 kts | 98° |
| 2026-05-04 21:39 | 28.07972 | -15.46453 | 23912 ft | 467 kts | 95° |
| 2026-05-04 21:39 | 28.08344 | -15.42783 | 24345 ft | 474 kts | 75° |
| 2026-05-04 21:39 | 28.09631 | -15.39393 | 24803 ft | 475 kts | 56° |
| 2026-05-04 21:39 | 28.11459 | -15.36269 | 25277 ft | 476 kts | 53° |
| 2026-05-04 21:40 | 28.13362 | -15.33163 | 25683 ft | 481 kts | 52° |
| 2026-05-04 21:40 | 28.15292 | -15.30049 | 26073 ft | 485 kts | 52° |
| 2026-05-04 21:40 | 28.17232 | -15.26903 | 26490 ft | 488 kts | 52° |
| 2026-05-04 21:40 | 28.19170 | -15.23729 | 26911 ft | 491 kts | 53° |
| 2026-05-04 21:41 | 28.21106 | -15.20526 | 27316 ft | 494 kts | 53° |
| 2026-05-04 21:41 | 28.23045 | -15.17294 | 27711 ft | 497 kts | 53° |
| 2026-05-04 21:41 | 28.24966 | -15.14075 | 28083 ft | 500 kts | 53° |
| 2026-05-04 21:41 | 28.26926 | -15.10783 | 28462 ft | 503 kts | 53° |
| 2026-05-04 21:42 | 28.28892 | -15.07477 | 28833 ft | 506 kts | 53° |
| 2026-05-04 21:42 | 28.30868 | -15.04150 | 29204 ft | 509 kts | 53° |
| 2026-05-04 21:42 | 28.32854 | -15.00806 | 29562 ft | 512 kts | 53° |
| 2026-05-04 21:42 | 28.34854 | -14.97438 | 29907 ft | 515 kts | 53° |
| 2026-05-04 21:43 | 28.36866 | -14.94048 | 30239 ft | 518 kts | 53° |
| 2026-05-04 21:43 | 28.38885 | -14.90644 | 30511 ft | 521 kts | 53° |
| 2026-05-04 21:43 | 28.40884 | -14.87270 | 30780 ft | 523 kts | 53° |
| 2026-05-04 21:43 | 28.42926 | -14.83822 | 31071 ft | 526 kts | 53° |
| 2026-05-04 21:44 | 28.44978 | -14.80353 | 31367 ft | 528 kts | 54° |
| 2026-05-04 21:44 | 28.47029 | -14.76885 | 31631 ft | 530 kts | 54° |
| 2026-05-04 21:44 | 28.49092 | -14.73391 | 31877 ft | 532 kts | 54° |
| 2026-05-04 21:44 | 28.51160 | -14.69887 | 32190 ft | 533 kts | 54° |
| 2026-05-04 21:45 | 28.53201 | -14.66426 | 32558 ft | 532 kts | 54° |
| 2026-05-04 21:45 | 28.55266 | -14.62921 | 32940 ft | 531 kts | 54° |
| 2026-05-04 21:45 | 28.57323 | -14.59426 | 33280 ft | 531 kts | 54° |
| 2026-05-04 21:45 | 28.59388 | -14.55916 | 33571 ft | 532 kts | 54° |
| 2026-05-04 21:46 | 28.61446 | -14.52414 | 33861 ft | 533 kts | 54° |
| 2026-05-04 21:46 | 28.63510 | -14.48900 | 34182 ft | 533 kts | 54° |
| 2026-05-04 21:46 | 28.65543 | -14.45436 | 34480 ft | 532 kts | 54° |
| 2026-05-04 21:46 | 28.67603 | -14.41922 | 34749 ft | 533 kts | 54° |
| 2026-05-04 21:47 | 28.69666 | -14.38401 | 34998 ft | 533 kts | 55° |
| 2026-05-04 21:47 | 28.71729 | -14.34878 | 35255 ft | 534 kts | 55° |
| 2026-05-04 21:47 | 28.73790 | -14.31353 | 35528 ft | 533 kts | 55° |
| 2026-05-04 21:47 | 28.75827 | -14.27867 | 35789 ft | 533 kts | 55° |
| 2026-05-04 21:48 | 28.77889 | -14.24336 | 36066 ft | 534 kts | 55° |
| 2026-05-04 21:48 | 28.79942 | -14.20818 | 36342 ft | 533 kts | 55° |
| 2026-05-04 21:48 | 28.82002 | -14.17283 | 36567 ft | 534 kts | 55° |
| 2026-05-04 21:48 | 28.84059 | -14.13752 | 36801 ft | 534 kts | 55° |
| 2026-05-04 21:49 | 28.86094 | -14.10254 | 37027 ft | 534 kts | 55° |
| 2026-05-04 21:49 | 28.88158 | -14.06705 | 37290 ft | 534 kts | 55° |
| 2026-05-04 21:49 | 28.90214 | -14.03166 | 37593 ft | 532 kts | 55° |
| 2026-05-04 21:49 | 28.92230 | -13.99691 | 37893 ft | 530 kts | 55° |
| 2026-05-04 21:50 | 28.94271 | -13.96172 | 38128 ft | 530 kts | 55° |
| 2026-05-04 21:50 | 28.98369 | -13.89100 | 38092 ft | 536 kts | 55° |
| 2026-05-04 21:51 | 29.02470 | -13.82007 | 38088 ft | 532 kts | 56° |
| 2026-05-04 21:51 | 29.06510 | -13.75007 | 38091 ft | 528 kts | 56° |
| 2026-05-04 21:52 | 29.10558 | -13.67983 | 38086 ft | 526 kts | 56° |
| 2026-05-04 21:52 | 29.14576 | -13.61000 | 38102 ft | 525 kts | 55° |
| 2026-05-04 21:53 | 29.18573 | -13.54042 | 38109 ft | 525 kts | 56° |
| 2026-05-04 21:53 | 29.22591 | -13.47035 | 38116 ft | 526 kts | 56° |
| 2026-05-04 21:54 | 29.26622 | -13.39994 | 38130 ft | 531 kts | 56° |
| 2026-05-04 21:54 | 29.30670 | -13.32911 | 38125 ft | 535 kts | 56° |
| 2026-05-04 21:55 | 29.34755 | -13.25750 | 38123 ft | 538 kts | 56° |
| 2026-05-04 21:55 | 29.38833 | -13.18588 | 38115 ft | 539 kts | 56° |
| 2026-05-04 21:56 | 29.42931 | -13.11379 | 38093 ft | 538 kts | 56° |
| 2026-05-04 21:56 | 29.47021 | -13.04171 | 38147 ft | 536 kts | 55° |
| 2026-05-04 21:57 | 29.51061 | -12.97039 | 38115 ft | 535 kts | 56° |
| 2026-05-04 21:57 | 29.55114 | -12.89872 | 38113 ft | 533 kts | 56° |
| 2026-05-04 21:58 | 29.59139 | -12.82740 | 38106 ft | 531 kts | 56° |
| 2026-05-04 21:58 | 29.63131 | -12.75657 | 38088 ft | 529 kts | 56° |
| 2026-05-04 21:59 | 29.67114 | -12.68575 | 38111 ft | 527 kts | 56° |
| 2026-05-04 21:59 | 29.71085 | -12.61503 | 38117 ft | 526 kts | 56° |
| 2026-05-04 21:59 | 29.72750 | -12.57757 | 38088 ft | 525 kts | 73° |
| 2026-05-04 22:00 | 29.73512 | -12.53680 | 38134 ft | 518 kts | 90° |
| 2026-05-04 22:00 | 29.73835 | -12.45398 | 38124 ft | 525 kts | 93° |
| 2026-05-04 22:01 | 29.74063 | -12.36937 | 38103 ft | 528 kts | 92° |
| 2026-05-04 22:01 | 29.74356 | -12.28509 | 38109 ft | 530 kts | 92° |
| 2026-05-04 22:02 | 29.74698 | -12.20014 | 38106 ft | 530 kts | 92° |
| 2026-05-04 22:02 | 29.75045 | -12.11533 | 38103 ft | 530 kts | 92° |
| 2026-05-04 22:03 | 29.75380 | -12.03103 | 38092 ft | 528 kts | 92° |
| 2026-05-04 22:03 | 29.75653 | -11.96081 | 38099 ft | 527 kts | 92° |
| 2026-05-04 22:04 | 29.75973 | -11.87654 | 38101 ft | 525 kts | 92° |
| 2026-05-04 22:04 | 29.76285 | -11.79302 | 38102 ft | 524 kts | 92° |
| 2026-05-04 22:05 | 29.76592 | -11.70913 | 37773 ft | 527 kts | 92° |
| 2026-05-04 22:05 | 29.76744 | -11.66688 | 37261 ft | 526 kts | 92° |
| 2026-05-04 22:05 | 29.76896 | -11.62479 | 36742 ft | 524 kts | 92° |
| 2026-05-04 22:05 | 29.77046 | -11.58283 | 36211 ft | 523 kts | 92° |
| 2026-05-04 22:06 | 29.77195 | -11.54092 | 35633 ft | 523 kts | 92° |
| 2026-05-04 22:06 | 29.77340 | -11.49954 | 35047 ft | 524 kts | 91° |
| 2026-05-04 22:06 | 29.77485 | -11.45756 | 34445 ft | 525 kts | 91° |
| 2026-05-04 22:06 | 29.77629 | -11.41539 | 33752 ft | 527 kts | 91° |
| 2026-05-04 22:07 | 29.77773 | -11.37308 | 33064 ft | 528 kts | 91° |
| 2026-05-04 22:07 | 29.77915 | -11.33071 | 32382 ft | 529 kts | 91° |
| 2026-05-04 22:07 | 29.78055 | -11.28888 | 31686 ft | 529 kts | 90° |
| 2026-05-04 22:07 | 29.78196 | -11.24661 | 31143 ft | 526 kts | 90° |
| 2026-05-04 22:08 | 29.78335 | -11.20470 | 30696 ft | 521 kts | 90° |
| 2026-05-04 22:08 | 29.78471 | -11.16318 | 30225 ft | 517 kts | 90° |
| 2026-05-04 22:08 | 29.78604 | -11.12184 | 29674 ft | 514 kts | 90° |
| 2026-05-04 22:08 | 29.78735 | -11.08081 | 29137 ft | 509 kts | 90° |
| 2026-05-04 22:09 | 29.78864 | -11.04025 | 28638 ft | 504 kts | 90° |
| 2026-05-04 22:09 | 29.78989 | -10.99999 | 28135 ft | 499 kts | 90° |
| 2026-05-04 22:09 | 29.79111 | -10.96070 | 27641 ft | 495 kts | 90° |
| 2026-05-04 22:09 | 29.79232 | -10.92124 | 27145 ft | 491 kts | 90° |
| 2026-05-04 22:10 | 29.79350 | -10.88207 | 26671 ft | 487 kts | 90° |
| 2026-05-04 22:10 | 29.79467 | -10.84325 | 26191 ft | 483 kts | 89° |
| 2026-05-04 22:10 | 29.79581 | -10.80471 | 25718 ft | 479 kts | 89° |
| 2026-05-04 22:10 | 29.79693 | -10.76683 | 25252 ft | 476 kts | 89° |
| 2026-05-04 22:11 | 29.79803 | -10.72886 | 24766 ft | 473 kts | 89° |
| 2026-05-04 22:11 | 29.79912 | -10.69102 | 24281 ft | 471 kts | 89° |
| 2026-05-04 22:11 | 29.80020 | -10.65336 | 23800 ft | 468 kts | 89° |
| 2026-05-04 22:11 | 29.80125 | -10.61639 | 23269 ft | 466 kts | 89° |
| 2026-05-04 22:12 | 29.80229 | -10.57924 | 22759 ft | 462 kts | 89° |
| 2026-05-04 22:12 | 29.80332 | -10.54237 | 22262 ft | 457 kts | 89° |
| 2026-05-04 22:12 | 29.80433 | -10.50577 | 21788 ft | 453 kts | 89° |
| 2026-05-04 22:12 | 29.80530 | -10.47011 | 21330 ft | 449 kts | 89° |
| 2026-05-04 22:13 | 29.80626 | -10.43432 | 20878 ft | 445 kts | 89° |
| 2026-05-04 22:13 | 29.80721 | -10.39885 | 20412 ft | 441 kts | 89° |
| 2026-05-04 22:13 | 29.80814 | -10.36360 | 19961 ft | 438 kts | 89° |
| 2026-05-04 22:13 | 29.80906 | -10.32861 | 19510 ft | 435 kts | 89° |
| 2026-05-04 22:14 | 29.80995 | -10.29388 | 19056 ft | 432 kts | 89° |
| 2026-05-04 22:14 | 29.81084 | -10.25941 | 18597 ft | 430 kts | 89° |
| 2026-05-04 22:14 | 29.81171 | -10.22506 | 18105 ft | 428 kts | 89° |
| 2026-05-04 22:14 | 29.81256 | -10.19092 | 17620 ft | 425 kts | 89° |
| 2026-05-04 22:15 | 29.81341 | -10.15702 | 17161 ft | 421 kts | 89° |
| 2026-05-04 22:15 | 29.81424 | -10.12337 | 16718 ft | 418 kts | 89° |
| 2026-05-04 22:15 | 29.81504 | -10.09046 | 16395 ft | 411 kts | 89° |
| 2026-05-04 22:15 | 29.81611 | -10.05802 | 16071 ft | 399 kts | 84° |
| 2026-05-04 22:16 | 29.82221 | -10.02709 | 15368 ft | 394 kts | 66° |
| 2026-05-04 22:16 | 29.83482 | -9.99934 | 14662 ft | 387 kts | 51° |
| 2026-05-04 22:16 | 29.85193 | -9.97611 | 14190 ft | 374 kts | 42° |
| 2026-05-04 22:16 | 29.86944 | -9.95429 | 13714 ft | 366 kts | 42° |
| 2026-05-04 22:17 | 29.88668 | -9.93274 | 13290 ft | 365 kts | 43° |
| 2026-05-04 22:17 | 29.90357 | -9.91149 | 12874 ft | 364 kts | 43° |
| 2026-05-04 22:17 | 29.92061 | -9.88991 | 12444 ft | 362 kts | 43° |
| 2026-05-04 22:17 | 29.93751 | -9.86840 | 12032 ft | 361 kts | 43° |
| 2026-05-04 22:18 | 29.95436 | -9.84690 | 11623 ft | 359 kts | 43° |
| 2026-05-04 22:18 | 29.97111 | -9.82549 | 11211 ft | 357 kts | 44° |
| 2026-05-04 22:18 | 29.98752 | -9.80449 | 10818 ft | 355 kts | 44° |
| 2026-05-04 22:18 | 30.00392 | -9.78349 | 10624 ft | 347 kts | 44° |
| 2026-05-04 22:19 | 30.01984 | -9.76308 | 10464 ft | 338 kts | 44° |
| 2026-05-04 22:19 | 30.03543 | -9.74309 | 10315 ft | 329 kts | 44° |
| 2026-05-04 22:19 | 30.05072 | -9.72383 | 10178 ft | 320 kts | 43° |
| 2026-05-04 22:19 | 30.06558 | -9.70558 | 10057 ft | 311 kts | 42° |
| 2026-05-04 22:20 | 30.08019 | -9.68773 | 9986 ft | 301 kts | 42° |
| 2026-05-04 22:20 | 30.09474 | -9.66996 | 9566 ft | 303 kts | 42° |
| 2026-05-04 22:20 | 30.10920 | -9.65224 | 9272 ft | 302 kts | 43° |
| 2026-05-04 22:20 | 30.12356 | -9.63458 | 8958 ft | 301 kts | 43° |
| 2026-05-04 22:21 | 30.13768 | -9.61720 | 8662 ft | 299 kts | 43° |
| 2026-05-04 22:21 | 30.15166 | -9.59944 | 8350 ft | 299 kts | 50° |
| 2026-05-04 22:21 | 30.16101 | -9.57793 | 8115 ft | 300 kts | 67° |
| 2026-05-04 22:21 | 30.16811 | -9.55533 | 7811 ft | 298 kts | 68° |
| 2026-05-04 22:22 | 30.17513 | -9.53275 | 7521 ft | 297 kts | 68° |
| 2026-05-04 22:22 | 30.18205 | -9.51062 | 7236 ft | 295 kts | 68° |
| 2026-05-04 22:22 | 30.18907 | -9.48833 | 6952 ft | 293 kts | 68° |
| 2026-05-04 22:22 | 30.19610 | -9.46619 | 6668 ft | 292 kts | 67° |
| 2026-05-04 22:23 | 30.20310 | -9.44419 | 6386 ft | 291 kts | 68° |
| 2026-05-04 22:23 | 30.21013 | -9.42226 | 6085 ft | 289 kts | 68° |
| 2026-05-04 22:23 | 30.21702 | -9.40071 | 5784 ft | 288 kts | 66° |
| 2026-05-04 22:23 | 30.22396 | -9.37900 | 5490 ft | 285 kts | 66° |
| 2026-05-04 22:24 | 30.23068 | -9.35794 | 5240 ft | 270 kts | 68° |
| 2026-05-04 22:24 | 30.23703 | -9.33806 | 4963 ft | 257 kts | 67° |
| 2026-05-04 22:24 | 30.24310 | -9.31908 | 4837 ft | 248 kts | 68° |
| 2026-05-04 22:24 | 30.24907 | -9.30047 | 4721 ft | 244 kts | 68° |
| 2026-05-04 22:25 | 30.25487 | -9.28233 | 4600 ft | 242 kts | 66° |
| 2026-05-04 22:25 | 30.26070 | -9.26409 | 4501 ft | 242 kts | 67° |
| 2026-05-04 22:25 | 30.26658 | -9.24570 | 4394 ft | 246 kts | 68° |
| 2026-05-04 22:25 | 30.27259 | -9.22690 | 3998 ft | 251 kts | 67° |
| 2026-05-04 22:26 | 30.28116 | -9.21002 | 3587 ft | 245 kts | 39° |
| 2026-05-04 22:26 | 30.29612 | -9.20246 | 3242 ft | 234 kts | 1° |
| 2026-05-04 22:26 | 30.31125 | -9.20734 | 2862 ft | 225 kts | 321° |
| 2026-05-04 22:26 | 30.31949 | -9.22174 | 2541 ft | 213 kts | 279° |
| 2026-05-04 22:27 | 30.31882 | -9.23802 | 2515 ft | 194 kts | 264° |
| 2026-05-04 22:27 | 30.31807 | -9.25295 | 2475 ft | 177 kts | 270° |
| 2026-05-04 22:27 | 30.31827 | -9.26705 | 2354 ft | 174 kts | 271° |
| 2026-05-04 22:27 | 30.31865 | -9.28110 | 2138 ft | 174 kts | 270° |
| 2026-05-04 22:28 | 30.31906 | -9.29500 | 1907 ft | 171 kts | 268° |
| 2026-05-04 22:28 | 30.31945 | -9.30852 | 1681 ft | 165 kts | 267° |
| 2026-05-04 22:28 | 30.31983 | -9.32199 | 1474 ft | 168 kts | 268° |
| 2026-05-04 22:28 | 30.32022 | -9.33502 | 1274 ft | 158 kts | 269° |
| 2026-05-04 22:29 | 30.32058 | -9.34720 | 1049 ft | 147 kts | 269° |
| 2026-05-04 22:29 | 30.32093 | -9.35875 | 871 ft | 144 kts | 269° |
| 2026-05-04 22:29 | 30.32164 | -9.37057 | 680 ft | 147 kts | 269° |
| 2026-05-04 22:29 | 30.32201 | -9.38211 | 470 ft | 146 kts | 267° |
| 2026-05-04 22:30 | 30.32218 | -9.39362 | 294 ft | 142 kts | 268° |
| 2026-05-04 22:30 | 30.32244 | -9.40436 | 230 ft | 110 kts | 272° |
| 2026-05-04 22:30 | 30.32261 | -9.41089 | 230 ft | 62 kts | 271° |
| 2026-05-04 22:30 | 30.32269 | -9.41425 | 230 ft | 18 kts | 271° |
| 2026-05-04 22:31 | 30.32308 | -9.41519 | 230 ft | 13 kts | 331° |
| 2026-05-04 22:31 | 30.32400 | -9.41528 | 230 ft | 15 kts | 1° |
| 2026-05-04 22:31 | 30.32512 | -9.41524 | 230 ft | 17 kts | 1° |
| 2026-05-04 22:31 | 30.32625 | -9.41520 | 232 ft | 16 kts | 2° |
| 2026-05-04 22:32 | 30.32734 | -9.41516 | 232 ft | 15 kts | 2° |
| 2026-05-04 22:32 | 30.32816 | -9.41462 | 230 ft | 15 kts | 76° |
| 2026-05-04 22:32 | 30.32817 | -9.41326 | 230 ft | 18 kts | 91° |
| 2026-05-04 22:32 | 30.32813 | -9.41190 | 230 ft | 12 kts | 92° |
| 2026-05-04 22:33 | 30.32841 | -9.41146 | 230 ft | 8 kts | 2° |
| 2026-05-04 22:33 | 30.32879 | -9.41144 | 231 ft | 1 kts | 2° |
| 2026-05-04 22:33 | 30.32880 | -9.41144 | 230 ft | 0 kts | 2° |